Haywood, Alabama
Current Conditions -  °F | °C
As of 11:53 AM on Tuesday 21 Oct 2014 (Local Time) from KANB Reporting Station
Clear Clear  
Wind Chill: 72°   Ceiling: Unl
Heat Index: 72°   Visibility: 10mi
Dew Point: 55°   Wind: 9mph
Humidity: 55%   Direction: 230°SW
Pressure: 30.04"   Gusts: NA
Location:  33.2829°N, 85.491°W
Report Text: KANB 211653Z AUTO 23008KT 10SM CLR 22/13 A3004 RMK AO2 SLP172 T02220128
Loading
Personal Weather Stations






























Interactive Weather Map
Tropical Storm Tracking
New forecast layout! Learn more

10-Day Weather Forecast

Advertisements
Track Severe Weather on mobile